Time;durP1;ratioP1;P1;durP2;ratioP2;P2;SDS_P1;SDS_P2;PMS_P1;PMS_P2;Temp;Humidity;BMP_temperature;BMP_pressure;BME280_temperature;BME280_humidity;BME280_pressure;Samples;Min_cycle;Max_cycle;Signal;HPM_P1;HPM_P2
2023/04/25 00:01:04;;;;;;;6.40;2.70;;;;;;;10.90;100.00;98492.55;106240;1254;71212;-67
2023/04/25 00:03:51;;;;;;;6.60;2.80;;;;;;;10.93;100.00;98493.76;105978;1257;59119;-67
2023/04/25 00:06:40;;;;;;;7.70;2.70;;;;;;;10.93;99.98;98493.92;105927;1254;61100;-68
2023/04/25 00:09:28;;;;;;;6.90;2.80;;;;;;;10.90;99.75;98487.93;106005;1254;71954;-66
2023/04/25 00:12:15;;;;;;;6.30;2.60;;;;;;;10.90;99.85;98484.86;106353;1254;68418;-68
2023/04/25 00:15:02;;;;;;;6.80;3.20;;;;;;;10.92;99.96;98481.77;106079;1257;72256;-66
2023/04/25 00:17:52;;;;;;;6.50;2.80;;;;;;;10.91;99.91;98477.55;105994;1254;59293;-67
2023/04/25 00:20:39;;;;;;;7.10;3.00;;;;;;;10.91;99.97;98472.09;106270;1256;61058;-67
2023/04/25 00:23:28;;;;;;;6.70;2.80;;;;;;;10.87;99.85;98469.98;106059;1257;72838;-67
2023/04/25 00:26:15;;;;;;;6.30;2.50;;;;;;;10.84;99.91;98468.13;106255;1257;66544;-68
2023/04/25 00:29:02;;;;;;;7.00;2.80;;;;;;;10.82;99.92;98470.35;105946;1260;72489;-67
2023/04/25 00:31:49;;;;;;;7.20;2.80;;;;;;;10.82;100.00;98472.11;106361;1257;59185;-66
2023/04/25 00:34:36;;;;;;;6.70;2.60;;;;;;;10.82;100.00;98476.01;105958;1254;61643;-68
2023/04/25 00:37:23;;;;;;;6.20;2.50;;;;;;;10.83;99.95;98475.09;106447;1253;69763;-67
2023/04/25 00:40:10;;;;;;;5.80;2.30;;;;;;;10.80;99.61;98477.64;106169;1264;68434;-68
2023/04/25 00:42:57;;;;;;;5.90;2.20;;;;;;;10.78;99.07;98475.33;105863;1257;73892;-68
2023/04/25 00:45:47;;;;;;;6.10;2.30;;;;;;;10.76;98.67;98474.52;106388;1253;59227;-68
2023/04/25 00:48:34;;;;;;;6.20;2.30;;;;;;;10.73;98.44;98473.55;105933;1253;59352;-69
2023/04/25 00:51:21;;;;;;;5.90;2.20;;;;;;;10.71;98.57;98473.20;105880;1254;72294;-69
2023/04/25 00:54:12;;;;;;;6.60;2.70;;;;;;;10.71;98.84;98472.20;106289;1255;67056;-68
2023/04/25 00:57:00;;;;;;;6.80;2.50;;;;;;;10.67;98.52;98472.08;105962;1255;72490;-69
2023/04/25 00:59:47;;;;;;;7.10;2.60;;;;;;;10.64;98.65;98473.79;105662;1257;59618;-71
2023/04/25 01:02:35;;;;;;;6.90;2.80;;;;;;;10.61;98.60;98473.23;106388;1251;59397;-70
2023/04/25 01:05:22;;;;;;;6.60;2.70;;;;;;;10.60;98.95;98468.92;106109;1264;72106;-69
2023/04/25 01:08:10;;;;;;;6.40;2.50;;;;;;;10.59;99.45;98476.23;106270;1251;69611;-71
2023/04/25 01:10:57;;;;;;;6.60;3.00;;;;;;;10.57;99.31;98480.68;106462;1251;71092;-68
2023/04/25 01:13:44;;;;;;;6.60;2.50;;;;;;;10.56;99.70;98479.55;106199;1255;59212;-70
2023/04/25 01:16:33;;;;;;;6.40;3.00;;;;;;;10.55;99.91;98480.02;105826;1258;59087;-69
2023/04/25 01:19:19;;;;;;;8.30;3.00;;;;;;;10.49;100.00;98476.36;105813;1257;70740;-68
2023/04/25 01:22:06;;;;;;;7.60;3.40;;;;;;;10.43;100.00;98476.09;106120;1251;67936;-70
2023/04/25 01:24:53;;;;;;;8.00;3.60;;;;;;;10.37;100.00;98476.73;105895;1255;71071;-69
2023/04/25 01:27:40;;;;;;;8.40;3.60;;;;;;;10.31;100.00;98477.63;105960;1251;59320;-68
2023/04/25 01:30:29;;;;;;;8.10;4.10;;;;;;;10.28;100.00;98480.27;106155;1254;59248;-69
2023/04/25 01:33:17;;;;;;;8.20;4.00;;;;;;;10.25;100.00;98481.09;105781;1255;72474;-69
2023/04/25 01:36:04;;;;;;;7.70;3.80;;;;;;;10.24;100.00;98480.11;105697;1254;66733;-68
2023/04/25 01:38:52;;;;;;;9.40;4.30;;;;;;;10.23;100.00;98476.45;106152;1251;72744;-68
2023/04/25 01:41:38;;;;;;;7.90;3.80;;;;;;;10.24;100.00;98480.31;106031;1253;59339;-70
2023/04/25 01:44:26;;;;;;;8.30;3.80;;;;;;;10.23;100.00;98480.89;106164;1251;60137;-65
2023/04/25 01:47:13;;;;;;;7.60;3.80;;;;;;;10.23;100.00;98480.20;105876;1254;72658;-67
2023/04/25 01:50:00;;;;;;;8.30;4.20;;;;;;;10.23;100.00;98475.75;105498;1256;1003072;-67
2023/04/25 01:52:49;;;;;;;7.80;3.70;;;;;;;10.25;100.00;98480.75;106146;1254;73117;-66
2023/04/25 01:55:36;;;;;;;8.80;4.20;;;;;;;10.26;100.00;98484.85;105994;1259;59256;-66
2023/04/25 01:58:29;;;;;;;9.10;4.10;;;;;;;10.28;100.00;98484.02;105778;1254;61021;-66
2023/04/25 02:01:32;;;;;;;9.20;4.30;;;;;;;10.29;100.00;98487.23;106292;1252;71611;-66
2023/04/25 02:04:31;;;;;;;8.20;4.00;;;;;;;10.31;100.00;98489.66;105971;1251;67905;-66
2023/04/25 02:07:18;;;;;;;8.50;4.30;;;;;;;10.32;100.00;98489.74;106299;1251;71192;-68
2023/04/25 02:10:13;;;;;;;9.00;4.70;;;;;;;10.32;100.00;98493.66;106284;1251;59517;-67
2023/04/25 02:13:15;;;;;;;9.60;4.20;;;;;;;10.30;100.00;98491.52;105690;1252;60103;-68
2023/04/25 02:16:16;;;;;;;8.30;4.20;;;;;;;10.30;100.00;98492.48;105846;1259;72096;-68
2023/04/25 02:19:04;;;;;;;8.00;4.10;;;;;;;10.28;100.00;98491.21;105865;1256;67937;-66
2023/04/25 02:21:52;;;;;;;8.10;4.20;;;;;;;10.26;100.00;98493.58;105914;1257;72581;-66
2023/04/25 02:24:40;;;;;;;7.70;4.10;;;;;;;10.25;100.00;98496.30;106304;1251;61216;-67
2023/04/25 02:27:26;;;;;;;7.90;4.10;;;;;;;10.23;100.00;98499.67;106232;1254;59367;-66
2023/04/25 02:30:13;;;;;;;8.10;4.40;;;;;;;10.22;100.00;98500.02;106041;1251;70599;-68
2023/04/25 02:33:00;;;;;;;7.40;3.70;;;;;;;10.22;100.00;98499.27;106089;1251;68454;-64
2023/04/25 02:35:49;;;;;;;9.00;4.10;;;;;;;10.22;100.00;98501.34;105794;1256;71990;-65
2023/04/25 02:38:36;;;;;;;7.70;4.00;;;;;;;10.23;100.00;98502.16;106199;1254;59310;-67
2023/04/25 02:41:23;;;;;;;8.60;4.20;;;;;;;10.24;100.00;98502.80;106121;1251;61649;-68
2023/04/25 02:44:10;;;;;;;8.50;4.20;;;;;;;10.25;100.00;98500.60;106132;1257;72933;-67
2023/04/25 02:46:57;;;;;;;8.20;4.30;;;;;;;10.25;100.00;98497.73;106075;1256;68595;-69
2023/04/25 02:49:45;;;;;;;8.20;4.20;;;;;;;10.25;100.00;98500.60;106023;1251;71193;-68
2023/04/25 02:52:32;;;;;;;10.60;4.60;;;;;;;10.23;100.00;98498.08;106143;1257;59220;-69
2023/04/25 02:55:25;;;;;;;9.50;4.30;;;;;;;10.23;100.00;98499.14;106340;1251;60194;-68
2023/04/25 02:58:15;;;;;;;8.70;4.60;;;;;;;10.22;100.00;98496.55;106168;1251;70695;-66
2023/04/25 03:01:09;;;;;;;8.00;4.60;;;;;;;10.21;100.00;98498.10;105855;1254;69300;-67
2023/04/25 03:03:56;;;;;;;8.70;4.30;;;;;;;10.20;100.00;98494.28;106042;1254;74087;-67
2023/04/25 03:06:44;;;;;;;9.40;4.80;;;;;;;10.19;100.00;98494.59;106023;1258;60000;-67
2023/04/25 03:09:32;;;;;;;10.80;5.20;;;;;;;10.19;100.00;98493.40;106022;1257;59919;-67
2023/04/25 03:12:19;;;;;;;9.30;5.00;;;;;;;10.20;100.00;98492.95;106386;1251;71724;-66
2023/04/25 03:15:07;;;;;;;8.60;4.80;;;;;;;10.22;100.00;98495.71;106451;1255;68497;-68
2023/04/25 03:17:54;;;;;;;8.00;4.20;;;;;;;10.22;100.00;98494.78;106321;1254;73164;-68
2023/04/25 03:20:42;;;;;;;9.30;4.90;;;;;;;10.15;100.00;98501.23;105888;1260;59329;-66
2023/04/25 03:23:30;;;;;;;9.00;5.30;;;;;;;9.96;98.98;98517.26;106293;1254;59365;-71
2023/04/25 03:26:17;;;;;;;10.10;5.50;;;;;;;9.78;97.91;98522.21;106084;1251;72116;-66
2023/04/25 03:29:05;;;;;;;9.90;4.50;;;;;;;9.63;97.84;98521.99;106254;1251;68667;-67
2023/04/25 03:31:53;;;;;;;8.10;4.50;;;;;;;9.45;96.02;98527.59;106321;1254;72887;-71
2023/04/25 03:34:41;;;;;;;8.60;5.10;;;;;;;9.31;95.75;98528.20;105886;1254;59836;-68
2023/04/25 03:37:28;;;;;;;9.40;4.50;;;;;;;9.15;94.56;98534.19;105622;1261;60563;-67
2023/04/25 03:40:15;;;;;;;9.10;4.50;;;;;;;9.01;94.18;98533.39;109394;1254;72189;-67
2023/04/25 03:43:31;;;;;;;7.80;4.00;;;;;;;8.87;93.53;98537.05;109394;1254;65867;-67
2023/04/25 03:46:21;;;;;;;8.50;4.50;;;;;;;8.74;93.53;98535.29;109142;1254;72451;-68
2023/04/25 03:49:08;;;;;;;8.20;4.50;;;;;;;8.62;93.90;98535.84;109381;1254;59313;-69
2023/04/25 03:52:11;;;;;;;10.20;4.40;;;;;;;8.53;94.33;98533.90;109203;1254;58936;-70
2023/04/25 03:54:58;;;;;;;8.70;4.20;;;;;;;8.45;94.60;98532.44;108873;1260;72275;-68
2023/04/25 03:57:45;;;;;;;7.30;3.50;;;;;;;8.35;94.96;98530.86;108923;1259;66410;-66
2023/04/25 04:00:32;;;;;;;8.00;4.20;;;;;;;8.28;95.30;98532.61;108994;1259;71358;-69
2023/04/25 04:03:20;;;;;;;7.90;3.90;;;;;;;8.24;95.93;98534.59;108894;1261;59466;-70
2023/04/25 04:06:09;;;;;;;7.40;3.80;;;;;;;8.20;96.25;98536.16;109068;1256;61402;-68
2023/04/25 04:08:59;;;;;;;7.40;3.50;;;;;;;8.16;95.83;98537.94;109007;1256;72038;-66
2023/04/25 04:11:46;;;;;;;8.50;4.40;;;;;;;8.11;96.13;98540.99;109005;1256;67719;-70
2023/04/25 04:14:35;;;;;;;8.80;4.30;;;;;;;8.09;96.25;98539.27;109092;1257;73021;-70
2023/04/25 04:17:21;;;;;;;8.00;4.10;;;;;;;8.08;96.25;98541.27;109012;1256;59477;-66
2023/04/25 04:20:09;;;;;;;8.20;4.20;;;;;;;8.06;96.43;98542.91;109067;1257;60783;-68
2023/04/25 04:22:58;;;;;;;9.90;4.30;;;;;;;8.03;96.57;98542.27;109067;1257;72344;-71
2023/04/25 04:25:46;;;;;;;9.50;4.00;;;;;;;8.03;96.21;98549.55;109346;1253;67880;-66
2023/04/25 04:28:56;;;;;;;7.50;4.00;;;;;;;8.04;96.69;98552.17;109441;1251;72456;-68
2023/04/25 04:32:01;;;;;;;7.80;3.50;;;;;;;8.05;96.40;98558.40;109331;1251;58053;-67
2023/04/25 04:34:48;;;;;;;7.90;3.90;;;;;;;8.03;96.24;98558.55;109570;1251;60235;-68
2023/04/25 04:37:36;;;;;;;9.10;4.70;;;;;;;8.03;96.20;98560.16;109469;1251;70649;-70
2023/04/25 04:40:25;;;;;;;9.60;4.50;;;;;;;8.04;95.97;98560.23;109553;1250;65764;-70
2023/04/25 04:43:24;;;;;;;8.50;4.40;;;;;;;8.04;95.79;98562.35;109504;1251;72555;-67
2023/04/25 04:46:21;;;;;;;7.90;4.40;;;;;;;8.05;95.76;98561.88;109522;1250;58142;-68
2023/04/25 04:49:31;;;;;;;8.70;4.80;;;;;;;8.07;95.53;98564.37;109615;1251;61196;-69
2023/04/25 04:52:48;;;;;;;8.90;4.90;;;;;;;8.10;95.15;98556.30;109549;1250;72136;-68
2023/04/25 04:55:57;;;;;;;10.30;4.10;;;;;;;8.13;94.78;98553.61;109494;1251;66400;-69
2023/04/25 04:59:13;;;;;;;8.50;4.20;;;;;;;8.14;94.66;98555.05;109323;1251;72547;-70
2023/04/25 05:02:07;;;;;;;9.80;4.60;;;;;;;8.16;95.15;98554.38;108562;1251;1002230;-67
2023/04/25 05:05:08;;;;;;;9.70;4.50;;;;;;;8.19;94.83;98557.97;109317;1253;60198;-66
2023/04/25 05:08:09;;;;;;;9.30;4.50;;;;;;;8.23;95.13;98560.06;109250;1253;70872;-69
2023/04/25 05:11:25;;;;;;;8.60;4.20;;;;;;;8.28;95.03;98560.87;109410;1250;68906;-68
2023/04/25 05:14:23;;;;;;;8.30;4.60;;;;;;;8.31;94.72;98564.85;109511;1251;71494;-69
2023/04/25 05:17:32;;;;;;;9.70;4.30;;;;;;;8.32;94.61;98560.27;109439;1251;57410;-68
2023/04/25 05:20:37;;;;;;;8.40;4.30;;;;;;;8.29;94.25;98566.55;109575;1250;58771;-69
2023/04/25 05:23:43;;;;;;;7.70;3.90;;;;;;;8.27;94.76;98566.39;109483;1250;71414;-70
2023/04/25 05:26:50;;;;;;;7.50;3.70;;;;;;;8.27;95.20;98567.80;109237;1251;67795;-66
2023/04/25 05:29:54;;;;;;;8.10;4.00;;;;;;;8.27;94.25;98566.09;109575;1250;72423;-71
2023/04/25 05:32:48;;;;;;;9.90;4.20;;;;;;;8.31;93.08;98570.46;109210;1254;58041;-68
2023/04/25 05:35:34;;;;;;;8.70;4.70;;;;;;;8.38;92.17;98572.48;109313;1254;58337;-66
2023/04/25 05:38:21;;;;;;;8.10;4.10;;;;;;;8.50;91.97;98571.44;109218;1254;70833;-66
2023/04/25 05:41:31;;;;;;;7.80;3.60;;;;;;;8.60;90.50;98576.36;109218;1254;68085;-67
2023/04/25 05:44:21;;;;;;;9.20;4.10;;;;;;;8.62;89.10;98580.55;109333;1254;72512;-68
2023/04/25 05:47:28;;;;;;;8.60;3.90;;;;;;;8.61;88.36;98582.91;109376;1254;58054;-66
2023/04/25 05:50:32;;;;;;;8.10;3.60;;;;;;;8.63;87.39;98593.16;109222;1254;59528;-67
2023/04/25 05:53:23;;;;;;;8.20;3.40;;;;;;;8.61;86.17;98597.13;109119;1256;71032;-67
2023/04/25 05:56:18;;;;;;;9.10;3.30;;;;;;;8.57;85.55;98601.08;109052;1255;66217;-68
2023/04/25 05:59:07;;;;;;;7.70;3.70;;;;;;;8.53;85.73;98604.01;109160;1255;72668;-66
2023/04/25 06:01:55;;;;;;;8.50;3.60;;;;;;;8.49;85.52;98605.73;109034;1256;60607;-66
2023/04/25 06:04:42;;;;;;;8.60;3.40;;;;;;;8.45;85.69;98610.77;109444;1251;58923;-69
2023/04/25 06:07:31;;;;;;;7.00;3.00;;;;;;;8.42;86.10;98611.72;109513;1251;73170;-69
2023/04/25 06:10:18;;;;;;;7.10;3.30;;;;;;;8.36;86.15;98606.95;109241;1253;67963;-69
2023/04/25 06:13:05;;;;;;;8.00;3.20;;;;;;;8.30;86.18;98604.89;109600;1251;72741;-67
2023/04/25 06:15:53;;;;;;;8.20;3.50;;;;;;;8.25;86.54;98602.45;109250;1254;59599;-67
2023/04/25 06:18:39;;;;;;;7.50;3.60;;;;;;;8.20;86.51;98604.31;109441;1252;61141;-68
2023/04/25 06:21:27;;;;;;;9.50;3.70;;;;;;;8.17;87.30;98601.94;109393;1251;71039;-66
2023/04/25 06:24:13;;;;;;;9.80;3.70;;;;;;;8.14;87.87;98602.94;109248;1251;240505;-70
2023/04/25 06:27:01;;;;;;;7.20;3.50;;;;;;;8.09;88.31;98607.30;109454;1253;72597;-65
2023/04/25 06:29:48;;;;;;;10.10;4.50;;;;;;;8.03;88.50;98612.04;109580;1252;57465;-71
2023/04/25 06:32:36;;;;;;;9.00;3.80;;;;;;;7.98;89.25;98613.20;109547;1251;59204;-69
2023/04/25 06:35:23;;;;;;;7.70;3.30;;;;;;;7.96;89.70;98616.17;109566;1253;72062;-67
2023/04/25 06:38:10;;;;;;;7.90;2.80;;;;;;;7.95;89.97;98615.94;109324;1253;67830;-66
2023/04/25 06:40:57;;;;;;;7.90;3.50;;;;;;;7.94;90.31;98613.05;109476;1253;72879;-67
2023/04/25 06:43:44;;;;;;;7.80;3.40;;;;;;;7.93;90.35;98614.95;109440;1252;57637;-67
2023/04/25 06:46:47;;;;;;;8.60;3.90;;;;;;;7.95;90.42;98613.17;109408;1251;60038;-66
2023/04/25 06:49:35;;;;;;;7.80;3.70;;;;;;;7.93;90.47;98610.66;109369;1251;72137;-66
2023/04/25 06:52:22;;;;;;;9.60;3.70;;;;;;;7.95;90.91;98618.91;109173;1255;66425;-65
2023/04/25 06:55:09;;;;;;;7.80;3.70;;;;;;;7.98;90.34;98615.01;109185;1255;71370;-66
2023/04/25 06:58:12;;;;;;;7.90;3.70;;;;;;;8.00;90.03;98615.02;109267;1255;57084;-67
2023/04/25 07:01:10;;;;;;;8.60;3.70;;;;;;;7.99;89.20;98613.48;109378;1259;60073;-65
2023/04/25 07:03:57;;;;;;;8.80;3.80;;;;;;;8.01;89.44;98614.20;109360;1256;69682;-67
2023/04/25 07:06:47;;;;;;;10.10;4.10;;;;;;;8.04;89.36;98616.44;109252;1256;67878;-66
2023/04/25 07:09:35;;;;;;;9.20;3.80;;;;;;;8.06;89.17;98619.02;109184;1256;70716;-67
2023/04/25 07:12:22;;;;;;;8.10;3.60;;;;;;;8.04;88.20;98619.89;109215;1255;56790;-70
2023/04/25 07:15:11;;;;;;;8.20;3.80;;;;;;;8.04;88.19;98615.05;108997;1259;59187;-66
2023/04/25 07:17:59;;;;;;;8.10;3.70;;;;;;;8.06;88.21;98614.98;108918;1264;71982;-68
2023/04/25 07:20:46;;;;;;;8.40;3.30;;;;;;;8.07;87.45;98613.98;108838;1259;67708;-67
2023/04/25 07:23:33;;;;;;;7.20;2.60;;;;;;;8.08;86.92;98616.27;109078;1256;72496;-67
2023/04/25 07:26:22;;;;;;;7.60;3.40;;;;;;;8.07;86.33;98621.59;108311;1256;1002284;-68
2023/04/25 07:29:30;;;;;;;7.30;2.70;;;;;;;8.09;86.72;98620.00;109053;1256;60241;-69
2023/04/25 07:32:18;;;;;;;7.20;3.10;;;;;;;8.10;86.71;98622.89;109092;1256;72288;-69
2023/04/25 07:35:07;;;;;;;6.70;2.60;;;;;;;8.12;86.38;98627.63;109163;1256;67746;-65
2023/04/25 07:37:55;;;;;;;7.40;3.20;;;;;;;8.21;86.55;98628.83;109140;1256;72366;-69
2023/04/25 07:40:43;;;;;;;6.40;2.60;;;;;;;8.39;85.48;98624.73;108965;1256;57110;-68
2023/04/25 07:43:33;;;;;;;7.40;3.20;;;;;;;8.68;85.47;98624.59;109148;1256;60064;-76
2023/04/25 07:46:19;;;;;;;12.00;5.90;;;;;;;9.07;83.17;98625.58;109044;1251;70807;-74
2023/04/25 07:49:07;;;;;;;7.80;3.20;;;;;;;9.46;81.01;98625.19;109513;1251;67812;-76
2023/04/25 07:51:54;;;;;;;6.60;2.60;;;;;;;9.89;80.04;98629.05;109353;1251;72741;-76
2023/04/25 07:54:42;;;;;;;6.30;2.40;;;;;;;10.25;76.58;98634.36;109280;1251;59824;-78
2023/04/25 07:57:34;;;;;;;8.00;3.30;;;;;;;10.49;75.30;98634.14;109288;1251;59259;-75
2023/04/25 08:00:22;;;;;;;7.80;2.80;;;;;;;10.71;74.92;98635.50;109234;1251;71947;-77
2023/04/25 08:03:10;;;;;;;6.00;2.40;;;;;;;10.93;74.02;98644.20;108995;1256;68166;-78
2023/04/25 08:05:57;;;;;;;6.50;2.50;;;;;;;11.08;71.68;98646.36;109134;1256;72815;-78
2023/04/25 08:08:45;;;;;;;6.00;2.50;;;;;;;11.17;71.19;98644.77;109031;1256;57000;-75
2023/04/25 08:11:33;;;;;;;9.20;4.90;;;;;;;11.24;69.90;98647.23;109090;1256;58748;-76
2023/04/25 08:14:20;;;;;;;7.10;2.40;;;;;;;11.28;70.33;98653.20;108912;1256;69844;-79
2023/04/25 08:17:07;;;;;;;6.90;2.50;;;;;;;11.26;69.49;98657.84;109152;1256;66642;-79
2023/04/25 08:19:59;;;;;;;6.50;2.30;;;;;;;11.16;69.02;98656.77;109000;1256;70508;-75
2023/04/25 08:22:48;;;;;;;8.10;2.60;;;;;;;11.08;69.85;98660.70;109030;1256;57848;-78
2023/04/25 08:25:55;;;;;;;6.00;2.30;;;;;;;11.02;70.52;98663.45;109190;1256;58790;-76
2023/04/25 08:28:44;;;;;;;6.60;2.50;;;;;;;11.01;70.75;98666.25;109047;1256;70772;-66
2023/04/25 08:31:31;;;;;;;6.10;2.30;;;;;;;10.91;70.54;98672.58;109077;1256;68721;-69
2023/04/25 08:34:20;;;;;;;5.90;2.00;;;;;;;10.77;71.02;98677.91;109393;1251;72030;-68
2023/04/25 08:37:09;;;;;;;5.30;2.20;;;;;;;10.67;71.68;98681.16;109566;1251;58020;-68
2023/04/25 08:40:06;;;;;;;6.00;2.30;;;;;;;10.61;71.42;98683.17;109444;1251;60237;-67
2023/04/25 08:43:11;;;;;;;7.00;2.40;;;;;;;10.59;71.11;98687.13;109523;1255;73019;-67
2023/04/25 08:46:01;;;;;;;6.40;2.40;;;;;;;10.58;70.91;98685.77;109418;1252;66508;-70
2023/04/25 08:49:02;;;;;;;6.60;2.20;;;;;;;10.62;70.96;98698.65;109284;1252;72638;-71
2023/04/25 08:51:51;;;;;;;6.70;2.10;;;;;;;10.61;70.38;98700.38;109315;1252;57204;-69
2023/04/25 08:54:48;;;;;;;7.10;2.40;;;;;;;10.60;70.82;98703.35;109429;1251;59973;-69
2023/04/25 08:57:35;;;;;;;6.00;2.10;;;;;;;10.63;70.58;98703.55;109478;1251;71091;-70
2023/04/25 09:00:22;;;;;;;5.50;2.00;;;;;;;10.67;69.98;98713.77;109528;1251;67933;-69
2023/04/25 09:03:10;;;;;;;5.40;1.80;;;;;;;10.68;69.36;98714.20;109308;1251;71156;-73
2023/04/25 09:05:57;;;;;;;6.30;2.00;;;;;;;10.68;68.18;98719.16;109342;1251;58157;-70
2023/04/25 09:08:44;;;;;;;5.40;2.10;;;;;;;10.63;68.43;98721.45;109515;1251;61221;-69
2023/04/25 09:11:32;;;;;;;6.40;2.30;;;;;;;10.51;68.71;98722.06;109427;1251;72307;-70
2023/04/25 09:14:22;;;;;;;7.00;2.50;;;;;;;10.43;69.37;98726.51;109502;1251;66401;-70
2023/04/25 09:17:19;;;;;;;7.90;2.50;;;;;;;10.40;70.27;98731.70;109476;1251;72512;-70
2023/04/25 09:20:13;;;;;;;6.80;2.40;;;;;;;10.41;69.76;98734.83;109563;1251;56857;-70
2023/04/25 09:23:06;;;;;;;6.00;2.00;;;;;;;10.54;69.95;98736.19;109425;1251;58852;-70
2023/04/25 09:25:54;;;;;;;6.50;2.10;;;;;;;10.68;69.18;98738.02;109418;1251;72128;-69
2023/04/25 09:28:42;;;;;;;6.60;2.90;;;;;;;10.87;69.73;98731.00;109571;1251;66740;-71
2023/04/25 09:31:29;;;;;;;6.70;2.20;;;;;;;11.12;68.73;98730.39;109451;1251;71235;-68
2023/04/25 09:34:20;;;;;;;7.20;2.20;;;;;;;11.41;68.55;98733.15;109527;1252;57791;-72
2023/04/25 09:37:21;;;;;;;7.70;2.50;;;;;;;11.74;68.03;98735.33;109627;1251;60148;-69
2023/04/25 09:40:26;;;;;;;6.40;2.10;;;;;;;11.91;65.44;98736.86;109509;1251;72300;-70
2023/04/25 09:43:24;;;;;;;5.80;2.00;;;;;;;12.02;65.92;98739.67;109497;1252;67772;-71
2023/04/25 09:46:11;;;;;;;6.10;2.00;;;;;;;12.00;64.38;98743.09;109453;1252;72735;-70
2023/04/25 09:49:07;;;;;;;5.90;1.90;;;;;;;11.79;64.19;98745.96;109320;1252;56951;-70
2023/04/25 09:52:04;;;;;;;6.60;1.70;;;;;;;11.58;64.60;98750.13;109301;1252;60496;-69
2023/04/25 09:54:56;;;;;;;6.50;1.70;;;;;;;11.47;65.13;98754.62;109311;1251;70761;-69
2023/04/25 09:57:54;;;;;;;5.60;1.80;;;;;;;11.31;64.39;98752.98;109424;1251;66665;-69
2023/04/25 10:00:41;;;;;;;5.90;2.40;;;;;;;11.20;64.38;98754.84;109356;1252;71658;-69
2023/04/25 10:03:35;;;;;;;6.40;2.50;;;;;;;11.15;64.78;98758.51;109573;1252;57938;-71
2023/04/25 10:06:55;;;;;;;7.30;3.10;;;;;;;11.19;65.46;98755.77;109342;1251;59047;-70
2023/04/25 10:09:45;;;;;;;6.80;2.00;;;;;;;11.39;65.76;98764.43;109428;1252;71051;-68
2023/04/25 10:12:33;;;;;;;6.60;2.00;;;;;;;11.55;65.49;98766.42;109339;1256;67934;-70
2023/04/25 10:15:22;;;;;;;6.00;2.20;;;;;;;11.48;64.92;98773.98;109257;1256;71293;-70
2023/04/25 10:18:09;;;;;;;7.60;2.30;;;;;;;11.29;65.53;98773.48;109024;1255;58085;-68
2023/04/25 10:21:01;;;;;;;7.50;2.30;;;;;;;11.13;66.27;98780.36;109097;1255;61401;-70
2023/04/25 10:23:49;;;;;;;5.90;1.90;;;;;;;11.01;67.27;98788.14;109187;1255;73208;-70
2023/04/25 10:26:36;;;;;;;5.90;1.90;;;;;;;10.86;67.47;98782.91;109169;1255;68020;-70
2023/04/25 10:29:24;;;;;;;7.10;1.90;;;;;;;10.73;68.13;98783.83;109042;1256;72676;-70
2023/04/25 10:32:11;;;;;;;9.20;2.30;;;;;;;10.65;68.50;98786.38;109141;1256;57650;-70
2023/04/25 10:35:24;;;;;;;7.10;2.40;;;;;;;10.54;68.60;98786.20;109162;1256;60047;-69
2023/04/25 10:38:14;;;;;;;7.10;2.10;;;;;;;10.50;68.17;98786.06;109136;1256;73285;-70
2023/04/25 10:41:08;;;;;;;6.60;2.20;;;;;;;10.51;68.40;98786.17;109176;1255;66495;-70
2023/04/25 10:44:03;;;;;;;6.50;2.30;;;;;;;10.53;68.25;98790.31;109447;1251;72506;-69
2023/04/25 10:46:50;;;;;;;7.60;2.40;;;;;;;10.62;67.88;98791.33;109303;1251;57031;-68
2023/04/25 10:49:42;;;;;;;5.90;2.20;;;;;;;10.73;67.39;98793.05;109266;1251;60097;-69
2023/04/25 10:52:29;;;;;;;7.10;2.10;;;;;;;10.86;67.49;98794.00;109575;1251;72371;-68
2023/04/25 10:55:16;;;;;;;7.30;2.20;;;;;;;11.02;67.32;98793.67;109407;1251;67770;-69
2023/04/25 10:58:03;;;;;;;7.90;2.10;;;;;;;11.18;66.35;98788.96;109319;1251;71094;-69
2023/04/25 11:00:50;;;;;;;7.10;2.40;;;;;;;11.31;66.11;98791.17;109517;1251;59308;-68
2023/04/25 11:03:43;;;;;;;6.50;2.50;;;;;;;11.32;64.96;98789.66;109562;1251;58737;-70
2023/04/25 11:06:53;;;;;;;8.60;2.60;;;;;;;11.41;65.27;98790.54;109591;1251;72113;-70
2023/04/25 11:09:50;;;;;;;6.70;2.00;;;;;;;11.47;64.48;98794.26;109571;1251;67686;-69
2023/04/25 11:12:36;;;;;;;6.30;2.30;;;;;;;11.50;64.12;98793.40;109262;1251;72791;-69
2023/04/25 11:15:24;;;;;;;6.30;2.10;;;;;;;11.54;63.27;98793.67;109656;1251;57075;-71
2023/04/25 11:18:16;;;;;;;6.10;1.80;;;;;;;11.60;63.29;98795.70;109453;1251;59132;-69
2023/04/25 11:21:03;;;;;;;7.50;2.20;;;;;;;11.62;62.89;98798.33;109510;1251;72178;-69
2023/04/25 11:23:50;;;;;;;7.80;2.60;;;;;;;11.56;62.68;98799.67;109299;1251;66564;-69
2023/04/25 11:26:37;;;;;;;6.80;1.80;;;;;;;11.47;62.54;98801.48;109439;1251;73016;-69
2023/04/25 11:29:27;;;;;;;7.50;2.20;;;;;;;11.34;61.93;98804.75;109581;1251;57008;-70
2023/04/25 11:32:17;;;;;;;5.80;1.80;;;;;;;11.26;62.47;98812.64;109642;1251;60025;-68
2023/04/25 11:35:08;;;;;;;8.00;2.10;;;;;;;11.19;62.41;98816.54;109427;1251;72584;-69
2023/04/25 11:37:56;;;;;;;7.20;1.90;;;;;;;11.02;62.22;98812.15;109624;1255;66575;-70
2023/04/25 11:40:42;;;;;;;8.10;2.20;;;;;;;10.99;63.05;98817.33;109345;1251;70456;-72
2023/04/25 11:43:28;;;;;;;7.10;2.70;;;;;;;10.91;63.57;98821.95;109546;1251;56982;-70
2023/04/25 11:46:15;;;;;;;6.80;2.30;;;;;;;10.81;64.55;98822.62;109439;1251;59093;-69
2023/04/25 11:49:04;;;;;;;7.30;2.10;;;;;;;10.70;65.19;98825.63;109487;1251;72087;-69
2023/04/25 11:51:52;;;;;;;7.40;2.70;;;;;;;10.60;65.74;98825.54;109266;1251;67601;-69
2023/04/25 11:54:38;;;;;;;7.20;2.30;;;;;;;10.49;66.45;98829.60;109574;1251;71183;-69
2023/04/25 11:57:25;;;;;;;8.40;2.30;;;;;;;10.40;66.75;98833.85;109603;1251;57737;-69
2023/04/25 12:00:17;;;;;;;8.20;2.70;;;;;;;10.29;67.30;98833.30;109535;1251;58843;-69
2023/04/25 12:03:09;;;;;;;7.90;2.40;;;;;;;10.13;67.28;98836.74;109560;1251;70954;-69
2023/04/25 12:06:03;;;;;;;7.80;2.20;;;;;;;10.03;67.55;98835.92;109548;1254;67798;-67
2023/04/25 12:09:00;;;;;;;7.70;2.40;;;;;;;9.94;67.43;98837.33;109568;1251;72665;-69
2023/04/25 12:11:49;;;;;;;8.60;2.40;;;;;;;9.85;68.18;98839.14;109581;1253;57777;-69
2023/04/25 12:14:36;;;;;;;8.20;2.20;;;;;;;9.83;68.44;98837.39;109482;1251;58778;-69
2023/04/25 12:17:23;;;;;;;7.00;2.30;;;;;;;9.85;68.76;98837.75;109433;1251;70794;-68
2023/04/25 12:20:13;;;;;;;8.30;2.60;;;;;;;9.87;69.00;98835.47;109563;1253;67119;-70
2023/04/25 12:23:00;;;;;;;7.30;2.30;;;;;;;9.87;68.90;98840.95;109568;1252;70130;-69
2023/04/25 12:25:47;;;;;;;9.90;2.50;;;;;;;9.91;69.07;98843.27;109429;1252;59410;-71
2023/04/25 12:28:34;;;;;;;8.50;2.60;;;;;;;10.00;69.05;98841.14;109444;1252;60195;-69
2023/04/25 12:31:21;;;;;;;7.80;2.40;;;;;;;10.10;68.67;98852.23;109386;1251;71142;-69
2023/04/25 12:34:08;;;;;;;10.00;2.40;;;;;;;10.15;68.29;98846.23;109513;1254;67678;-69
2023/04/25 12:36:54;;;;;;;8.00;2.30;;;;;;;10.25;68.20;98844.84;109412;1252;72828;-71
2023/04/25 12:39:41;;;;;;;8.80;2.60;;;;;;;10.35;68.11;98849.58;109496;1254;57757;-69
2023/04/25 12:42:27;;;;;;;8.70;3.00;;;;;;;10.44;67.77;98850.33;109401;1251;60214;-69
2023/04/25 12:45:15;;;;;;;7.30;2.30;;;;;;;10.55;68.09;98845.48;109517;1251;72012;-70
2023/04/25 12:48:02;;;;;;;9.90;2.20;;;;;;;10.63;67.47;98844.52;109365;1254;67906;-69
2023/04/25 12:50:51;;;;;;;8.80;2.40;;;;;;;10.69;67.40;98850.00;109547;1251;71300;-68
2023/04/25 12:53:40;;;;;;;6.60;2.40;;;;;;;10.76;66.97;98847.23;109622;1252;57565;-68
2023/04/25 12:56:27;;;;;;;8.80;3.20;;;;;;;10.79;66.73;98848.35;109539;1253;60215;-68
2023/04/25 12:59:14;;;;;;;10.90;3.50;;;;;;;10.78;66.14;98848.80;109614;1251;72346;-69
2023/04/25 13:02:01;;;;;;;8.80;3.10;;;;;;;10.73;66.69;98846.99;109439;1252;67862;-69
2023/04/25 13:04:48;;;;;;;8.20;2.60;;;;;;;10.75;66.58;98840.59;109319;1251;71309;-72
2023/04/25 13:07:34;;;;;;;7.10;2.20;;;;;;;10.78;65.38;98834.79;109480;1251;57017;-70
2023/04/25 13:10:22;;;;;;;9.10;2.80;;;;;;;10.88;64.86;98832.18;109371;1254;60141;-70
2023/04/25 13:13:09;;;;;;;8.90;2.70;;;;;;;11.00;65.08;98832.42;109563;1251;71431;-70
2023/04/25 13:15:57;;;;;;;7.70;2.70;;;;;;;11.14;64.83;98833.54;109402;1251;67652;-71